Time;durP1;ratioP1;P1;durP2;ratioP2;P2;SDS_P1;SDS_P2;PMS_P1;PMS_P2;Temp;Humidity;BMP_temperature;BMP_pressure;BME280_temperature;BME280_humidity;BME280_pressure;Samples;Min_cycle;Max_cycle;Signal;HPM_P1;HPM_P2
2021/08/09 00:01:10;;;;;;;;;1.00;1.00;;;;;-143.39;100.00;63593.47;4866024;29;46270;-81
2021/08/09 00:03:35;;;;;;;;;0.75;0.25;;;;;-143.39;100.00;63593.47;4866019;29;45403;-81
2021/08/09 00:06:01;;;;;;;;;2.00;0.00;;;;;-143.39;100.00;63593.47;4866151;29;45379;-81
2021/08/09 00:08:26;;;;;;;;;2.25;1.00;;;;;-143.39;100.00;63593.47;4865872;29;45405;-81
2021/08/09 00:10:51;;;;;;;;;0.00;0.00;;;;;-143.39;100.00;63593.47;4866898;29;46171;-81
2021/08/09 00:13:17;;;;;;;;;0.00;0.00;;;;;-143.39;100.00;63593.47;4868524;29;45316;-81
2021/08/09 00:15:42;;;;;;;;;2.50;0.00;;;;;-143.39;100.00;63593.47;4865900;29;45381;-81
2021/08/09 00:18:08;;;;;;;;;0.25;0.25;;;;;-143.39;100.00;63593.47;4861949;29;45279;-81
2021/08/09 00:20:33;;;;;;;;;0.25;0.25;;;;;-143.39;100.00;63593.47;4877819;29;46335;-81
2021/08/09 00:22:59;;;;;;;;;0.75;0.75;;;;;-143.39;100.00;63593.47;4866358;29;45260;-81
2021/08/09 00:25:24;;;;;;;;;1.00;1.00;;;;;-143.39;100.00;63593.47;4864771;29;45245;-81
2021/08/09 00:27:49;;;;;;;;;3.00;0.00;;;;;-143.39;100.00;63593.47;4865528;29;45561;-81
2021/08/09 00:30:15;;;;;;;;;1.00;1.00;;;;;-143.39;100.00;63593.47;4865460;29;46091;-81
2021/08/09 00:32:40;;;;;;;;;3.25;1.00;;;;;-143.39;100.00;63593.47;4864762;29;45388;-81
2021/08/09 00:35:06;;;;;;;;;2.25;0.75;;;;;-143.39;100.00;63593.47;4867667;29;45221;-80
2021/08/09 00:37:32;;;;;;;;;1.00;1.00;;;;;-143.39;100.00;63593.47;4876893;28;45155;-80
2021/08/09 00:39:57;;;;;;;;;3.00;1.00;;;;;-143.39;100.00;63593.47;4872042;28;46909;-80
2021/08/09 00:42:23;;;;;;;;;1.25;0.75;;;;;-143.39;100.00;63593.47;4866051;29;45556;-80
2021/08/09 00:44:48;;;;;;;;;1.00;1.00;;;;;-143.39;100.00;63593.47;4849323;29;45445;-81
2021/08/09 00:47:13;;;;;;;;;2.00;0.00;;;;;-143.39;100.00;63593.47;4865049;29;45396;-80
2021/08/09 00:49:39;;;;;;;;;0.50;0.00;;;;;-143.39;100.00;63593.47;4865496;29;46272;-80
2021/08/09 00:52:06;;;;;;;;;1.00;1.00;;;;;-143.39;100.00;63593.47;4865617;29;45372;-80
2021/08/09 00:54:33;;;;;;;;;4.50;1.00;;;;;-143.39;100.00;63593.47;4865423;29;45393;-80
2021/08/09 00:57:00;;;;;;;;;1.00;1.00;;;;;-143.39;100.00;63593.47;4873491;29;45499;-81
2021/08/09 00:59:27;;;;;;;;;2.00;1.00;;;;;-143.39;100.00;63593.47;4865231;29;46100;-80
2021/08/09 01:01:52;;;;;;;;;1.50;1.00;;;;;-143.39;100.00;63593.47;4848934;29;45391;-80
2021/08/09 01:04:18;;;;;;;;;0.25;0.25;;;;;-143.39;100.00;63593.47;4868814;29;45373;-80
2021/08/09 01:06:44;;;;;;;;;2.50;1.00;;;;;-143.39;100.00;63593.47;4868640;29;45321;-80
2021/08/09 01:09:30;;;;;;;;;0.75;0.75;;;;;-143.39;100.00;63593.47;4868137;29;45384;-80
2021/08/09 01:12:23;;;;;;;;;3.00;1.00;;;;;-143.39;100.00;63593.47;4857504;29;45419;-80
2021/08/09 01:14:52;;;;;;;;;2.00;2.00;;;;;-143.39;100.00;63593.47;4867261;29;45405;-80
2021/08/09 01:17:19;;;;;;;;;2.75;2.00;;;;;-143.39;100.00;63593.47;4867658;29;45544;-80
2021/08/09 01:20:06;;;;;;;;;1.50;1.50;;;;;-143.39;100.00;63593.47;4880627;29;45298;-80
2021/08/09 01:22:36;;;;;;;;;2.00;2.00;;;;;-143.39;100.00;63593.47;4851300;29;45239;-80
2021/08/09 01:25:14;;;;;;;;;1.00;1.00;;;;;-143.39;100.00;63593.47;4867839;29;45446;-80
2021/08/09 01:27:43;;;;;;;;;1.00;1.00;;;;;-143.39;100.00;63593.47;4867874;29;45158;-80
2021/08/09 01:30:10;;;;;;;;;1.00;1.00;;;;;-143.39;100.00;63593.47;4867984;29;46621;-80
2021/08/09 01:32:42;;;;;;;;;2.25;1.00;;;;;-143.39;100.00;63593.47;4867655;29;45367;-80
2021/08/09 01:35:08;;;;;;;;;0.00;0.00;;;;;-143.39;100.00;63593.47;4851388;29;45336;-80
2021/08/09 01:37:36;;;;;;;;;1.50;1.50;;;;;-143.39;100.00;63593.47;4867669;29;45578;-80
2021/08/09 01:40:05;;;;;;;;;1.50;0.75;;;;;-143.39;100.00;63593.47;4851011;29;47469;-81
2021/08/09 01:42:31;;;;;;;;;2.25;0.00;;;;;-143.39;100.00;63593.47;4850930;29;46027;-80
2021/08/09 01:44:56;;;;;;;;;0.75;0.75;;;;;-143.39;100.00;63593.47;4868059;29;45603;-80
2021/08/09 01:47:22;;;;;;;;;5.00;0.75;;;;;-143.39;100.00;63593.47;4867397;29;45452;-80
2021/08/09 01:49:48;;;;;;;;;1.00;1.00;;;;;-143.39;100.00;63593.47;4867680;29;45164;-80
2021/08/09 01:52:14;;;;;;;;;1.00;1.00;;;;;-143.39;100.00;63593.47;4867938;29;45345;-80
2021/08/09 01:54:40;;;;;;;;;1.00;1.00;;;;;-143.39;100.00;63593.47;4868206;29;45534;-80
2021/08/09 01:57:05;;;;;;;;;0.25;0.25;;;;;-143.39;100.00;63593.47;4875614;29;45433;-80
2021/08/09 01:59:31;;;;;;;;;1.25;1.00;;;;;-143.39;100.00;63593.47;4867507;29;46160;-81
2021/08/09 02:01:56;;;;;;;;;2.75;1.00;;;;;-143.39;100.00;63593.47;4867271;29;45435;-81
2021/08/09 02:04:22;;;;;;;;;3.00;1.75;;;;;-143.39;100.00;63593.47;4867533;29;45428;-80
2021/08/09 02:06:47;;;;;;;;;3.00;0.50;;;;;-143.39;100.00;63593.47;4850587;29;45446;-80
2021/08/09 02:09:12;;;;;;;;;1.25;0.50;;;;;-143.39;100.00;63593.47;4850789;29;47801;-80
2021/08/09 02:11:45;;;;;;;;;1.75;0.75;;;;;-143.39;100.00;63593.47;4851083;29;45302;-80
2021/08/09 02:14:14;;;;;;;;;1.00;1.00;;;;;-143.39;100.00;63593.47;4869125;29;45390;-80
2021/08/09 02:17:08;;;;;;;;;1.50;0.25;;;;;-143.39;100.00;63593.47;4867214;29;45500;-81
2021/08/09 02:19:46;;;;;;;;;1.50;0.75;;;;;-143.39;100.00;63593.47;4867270;29;46413;-80
2021/08/09 02:22:33;;;;;;;;;2.75;0.75;;;;;-143.39;100.00;63593.47;4867457;29;45234;-80
2021/08/09 02:25:06;;;;;;;;;0.25;0.00;;;;;-143.39;100.00;63593.47;4850733;29;45442;-80
2021/08/09 02:27:40;;;;;;;;;2.00;0.75;;;;;-143.39;100.00;63593.47;4867105;29;45417;-80
2021/08/09 02:30:07;;;;;;;;;2.00;0.75;;;;;-143.39;100.00;63593.47;4867168;29;45386;-80
2021/08/09 02:32:35;;;;;;;;;1.50;1.50;;;;;-143.39;100.00;63593.47;4866592;29;45496;-80
2021/08/09 02:35:03;;;;;;;;;2.00;1.00;;;;;-143.39;100.00;63593.47;4867743;29;45410;-80
2021/08/09 02:37:29;;;;;;;;;0.75;0.75;;;;;-143.39;100.00;63593.47;4867106;29;45393;-80
2021/08/09 02:39:57;;;;;;;;;1.75;0.75;;;;;-143.39;100.00;63593.47;4866758;29;46597;-80
2021/08/09 02:42:23;;;;;;;;;0.50;0.50;;;;;-143.39;100.00;63593.47;4866896;29;45416;-81
2021/08/09 02:44:49;;;;;;;;;1.00;0.00;;;;;-143.39;100.00;63593.47;4867061;29;45337;-80
2021/08/09 02:47:16;;;;;;;;;4.50;0.75;;;;;-143.39;100.00;63593.47;4866446;29;45404;-80
2021/08/09 02:49:50;;;;;;;;;1.25;1.00;;;;;-143.39;100.00;63593.47;4877887;29;45435;-80
2021/08/09 02:52:19;;;;;;;;;3.00;0.50;;;;;-143.39;100.00;63593.47;4866895;29;45460;-81
2021/08/09 02:54:47;;;;;;;;;4.00;1.75;;;;;-143.39;100.00;63593.47;4866899;29;45301;-81
2021/08/09 02:57:14;;;;;;;;;0.25;0.25;;;;;-143.39;100.00;63593.47;4858393;29;46339;-81
2021/08/09 02:59:40;;;;;;;;;2.00;0.75;;;;;-143.39;100.00;63593.47;4866456;29;45472;-81
2021/08/09 03:02:07;;;;;;;;;0.50;0.50;;;;;-143.39;100.00;63593.47;4849689;29;45353;-81
2021/08/09 03:04:35;;;;;;;;;0.50;0.50;;;;;-143.39;100.00;63593.47;4866682;29;45324;-81
2021/08/09 03:07:06;;;;;;;;;2.75;0.75;;;;;-143.39;100.00;63593.47;4866602;29;45636;-81
2021/08/09 03:09:35;;;;;;;;;3.75;0.75;;;;;-143.39;100.00;63593.47;4867473;29;45347;-81
2021/08/09 03:12:01;;;;;;;;;0.75;0.75;;;;;-143.39;100.00;63593.47;4866689;29;45464;-81
2021/08/09 03:14:30;;;;;;;;;1.25;0.50;;;;;-143.39;100.00;63593.47;4852248;29;45271;-81
2021/08/09 03:16:56;;;;;;;;;2.00;0.50;;;;;-143.39;100.00;63593.47;4866268;29;45397;-81
2021/08/09 03:19:21;;;;;;;;;1.50;1.00;;;;;-143.39;100.00;63593.47;4866354;29;45439;-81
2021/08/09 03:21:51;;;;;;;;;3.75;1.00;;;;;-143.39;100.00;63593.47;4850225;29;45498;-81
2021/08/09 03:24:19;;;;;;;;;3.00;1.50;;;;;-143.39;100.00;63593.47;4866501;29;45235;-81
2021/08/09 03:26:45;;;;;;;;;0.75;0.75;;;;;-143.39;100.00;63593.47;4866585;29;45403;-81
2021/08/09 03:29:11;;;;;;;;;2.50;0.50;;;;;-143.39;100.00;63593.47;4878552;29;45497;-81
2021/08/09 03:31:36;;;;;;;;;0.50;0.25;;;;;-143.39;100.00;63593.47;4866257;29;45504;-81
2021/08/09 03:34:01;;;;;;;;;1.75;0.50;;;;;-143.39;100.00;63593.47;4866249;29;45394;-81
2021/08/09 03:36:27;;;;;;;;;3.50;1.50;;;;;-143.39;100.00;63593.47;4866296;29;45608;-81
2021/08/09 03:38:52;;;;;;;;;1.00;1.00;;;;;-143.39;100.00;63593.47;4868731;29;45406;-81
2021/08/09 03:41:17;;;;;;;;;2.75;0.50;;;;;-143.39;100.00;63593.47;4875762;29;45265;-81
2021/08/09 03:43:43;;;;;;;;;2.00;0.75;;;;;-143.39;100.00;63593.47;4866371;29;45305;-81
2021/08/09 03:46:10;;;;;;;;;4.75;1.75;;;;;-143.39;100.00;63593.47;4866313;29;45293;-81
2021/08/09 03:48:35;;;;;;;;;2.75;2.00;;;;;-143.39;100.00;63593.47;4868673;29;46165;-81
2021/08/09 03:51:00;;;;;;;;;4.75;2.00;;;;;-143.39;100.00;63593.47;4868712;29;46111;-80
2021/08/09 03:53:26;;;;;;;;;2.00;1.75;;;;;-143.39;100.00;63593.47;4886583;28;44741;-81
2021/08/09 03:55:51;;;;;;;;;2.75;1.75;;;;;-143.39;100.00;63593.47;4880478;29;44886;-81
2021/08/09 03:58:16;;;;;;;;;3.50;1.50;;;;;-143.39;100.00;63593.47;4852335;29;46160;-81
2021/08/09 04:00:42;;;;;;;;;2.00;1.00;;;;;-143.39;100.00;63593.47;4866150;29;45227;-81
2021/08/09 04:03:07;;;;;;;;;2.75;1.75;;;;;-143.39;100.00;63593.47;4866120;29;45261;-81
2021/08/09 04:05:32;;;;;;;;;3.25;1.50;;;;;-143.39;100.00;63593.47;4849236;29;45187;-81
2021/08/09 04:07:58;;;;;;;;;2.75;2.25;;;;;-143.39;100.00;63593.47;4865721;29;45606;-81
2021/08/09 04:10:23;;;;;;;;;2.00;2.00;;;;;-143.39;100.00;63593.47;4865622;29;45515;-81
2021/08/09 04:12:49;;;;;;;;;4.75;2.00;;;;;-143.39;100.00;63593.47;4868559;29;45573;-80
2021/08/09 04:15:14;;;;;;;;;3.00;1.25;;;;;-143.39;100.00;63593.47;4865707;29;45372;-80
2021/08/09 04:17:39;;;;;;;;;2.75;2.00;;;;;-143.39;100.00;63593.47;4848428;29;46959;-81
2021/08/09 04:20:05;;;;;;;;;1.00;1.00;;;;;-143.39;100.00;63593.47;4865692;29;45412;-81
2021/08/09 04:22:31;;;;;;;;;1.00;1.00;;;;;-143.39;100.00;63593.47;4865662;29;45446;-81
2021/08/09 04:24:56;;;;;;;;;3.00;1.75;;;;;-143.39;100.00;63593.47;4848685;29;45445;-81
2021/08/09 04:27:22;;;;;;;;;3.75;2.00;;;;;-143.39;100.00;63593.47;4865322;29;46036;-81
2021/08/09 04:29:47;;;;;;;;;1.50;1.00;;;;;-143.39;100.00;63593.47;4863826;29;45455;-81
2021/08/09 04:32:16;;;;;;;;;2.00;1.00;;;;;-143.39;100.00;63593.47;4865161;29;45373;-81
2021/08/09 04:34:43;;;;;;;;;2.00;1.75;;;;;-143.39;100.00;63593.47;4865750;29;45219;-81
2021/08/09 04:37:09;;;;;;;;;2.50;1.75;;;;;-143.39;100.00;63593.47;4866509;29;45514;-81
2021/08/09 04:39:34;;;;;;;;;2.00;1.75;;;;;-143.39;100.00;63593.47;4851870;29;45447;-81
2021/08/09 04:41:59;;;;;;;;;4.75;2.00;;;;;-143.39;100.00;63593.47;4869369;29;45907;-81
2021/08/09 04:44:25;;;;;;;;;6.00;2.00;;;;;-143.39;100.00;63593.47;4852150;29;45716;-81
2021/08/09 04:46:50;;;;;;;;;2.50;2.00;;;;;-143.39;100.00;63593.47;4867931;29;46186;-81
2021/08/09 04:49:15;;;;;;;;;2.00;2.00;;;;;-143.39;100.00;63593.47;4868506;29;45417;-81
2021/08/09 04:51:41;;;;;;;;;2.00;2.00;;;;;-143.39;100.00;63593.47;4869947;29;45405;-81
2021/08/09 04:54:06;;;;;;;;;3.25;2.00;;;;;-143.39;100.00;63593.47;4853479;29;46739;-81
2021/08/09 04:56:32;;;;;;;;;4.00;3.00;;;;;-143.39;100.00;63593.47;4860498;29;47043;-81
2021/08/09 04:58:57;;;;;;;;;2.00;2.00;;;;;-143.39;100.00;63593.47;4868736;29;45417;-81
2021/08/09 05:01:22;;;;;;;;;5.50;1.75;;;;;-143.39;100.00;63593.47;4868314;29;45369;-81
2021/08/09 05:03:48;;;;;;;;;5.75;2.00;;;;;-143.39;100.00;63593.47;4868115;29;45466;-82
2021/08/09 05:06:14;;;;;;;;;3.75;2.00;;;;;-143.39;100.00;63593.47;4867238;29;45270;-81
2021/08/09 05:08:39;;;;;;;;;2.75;2.00;;;;;-143.39;100.00;63593.47;4868223;29;46491;-81
2021/08/09 05:11:05;;;;;;;;;4.00;2.25;;;;;-143.39;100.00;63593.47;4869634;29;45491;-82
2021/08/09 05:13:30;;;;;;;;;3.00;3.00;;;;;-143.39;100.00;63593.47;4870834;29;45203;-81
2021/08/09 05:15:56;;;;;;;;;10.00;5.00;;;;;-143.39;100.00;63593.47;4867895;29;46221;-82
2021/08/09 05:18:21;;;;;;;;;4.50;3.00;;;;;-143.39;100.00;63593.47;4868296;29;45410;-82
2021/08/09 05:20:47;;;;;;;;;5.50;2.50;;;;;-143.39;100.00;63593.47;4851454;29;45224;-81
2021/08/09 05:23:14;;;;;;;;;2.00;2.00;;;;;-143.39;100.00;63593.47;4868238;29;45181;-81
2021/08/09 05:25:40;;;;;;;;;2.00;2.00;;;;;-143.39;100.00;63593.47;4868479;29;45382;-81
2021/08/09 05:28:05;;;;;;;;;4.75;2.50;;;;;-143.39;100.00;63593.47;4868735;29;45279;-82
2021/08/09 05:30:31;;;;;;;;;2.00;2.00;;;;;-143.39;100.00;63593.47;4851581;29;45852;-81
2021/08/09 05:32:58;;;;;;;;;2.00;2.00;;;;;-143.39;100.00;63593.47;4851932;29;45315;-81
2021/08/09 05:35:24;;;;;;;;;5.00;2.25;;;;;-143.39;100.00;63593.47;4881102;29;45639;-81
2021/08/09 05:37:49;;;;;;;;;5.75;3.00;;;;;-143.39;100.00;63593.47;4851389;29;46075;-81
2021/08/09 05:40:15;;;;;;;;;5.25;1.50;;;;;-143.39;100.00;63593.47;4867909;29;45198;-81
2021/08/09 05:42:40;;;;;;;;;3.00;3.00;;;;;-143.39;100.00;63593.47;4867949;29;45319;-82
2021/08/09 05:45:06;;;;;;;;;2.00;1.50;;;;;-143.39;100.00;63593.47;4850834;29;47010;-82
2021/08/09 05:47:31;;;;;;;;;2.00;1.50;;;;;-143.39;100.00;63593.47;4867370;29;45501;-81
2021/08/09 05:49:57;;;;;;;;;3.00;2.25;;;;;-143.39;100.00;63593.47;4867759;29;45581;-81
2021/08/09 05:52:24;;;;;;;;;2.50;1.50;;;;;-143.39;100.00;63593.47;4867913;29;45218;-81
2021/08/09 05:54:51;;;;;;;;;4.00;2.25;;;;;-143.39;100.00;63593.47;4867593;29;45386;-82
2021/08/09 05:57:16;;;;;;;;;3.50;2.00;;;;;-143.39;100.00;63593.47;4876121;29;45405;-82
2021/08/09 05:59:42;;;;;;;;;4.25;1.75;;;;;-143.39;100.00;63593.47;4867481;29;45400;-82
2021/08/09 06:02:07;;;;;;;;;3.00;1.75;;;;;-143.39;100.00;63593.47;4851237;29;45474;-82
2021/08/09 06:04:33;;;;;;;;;4.00;1.00;;;;;-143.39;100.00;63593.47;4867320;29;45412;-82
2021/08/09 06:06:58;;;;;;;;;2.25;2.25;;;;;-143.39;100.00;63593.47;4867606;29;45278;-82
2021/08/09 06:09:24;;;;;;;;;3.00;1.00;;;;;-143.39;100.00;63593.47;4868543;29;45398;-82
2021/08/09 06:11:49;;;;;;;;;5.00;3.00;;;;;-143.39;100.00;63593.47;4850958;29;45810;-82
2021/08/09 06:14:15;;;;;;;;;2.75;2.75;;;;;-143.39;100.00;63593.47;4869835;29;46447;-81
2021/08/09 06:16:40;;;;;;;;;2.00;1.50;;;;;-143.39;100.00;63593.47;4867395;29;45336;-82
2021/08/09 06:19:05;;;;;;;;;1.75;1.75;;;;;-143.39;100.00;63593.47;4867188;29;45233;-82
2021/08/09 06:21:31;;;;;;;;;2.50;1.75;;;;;-143.39;100.00;63593.47;4867770;29;45166;-81
2021/08/09 06:23:56;;;;;;;;;1.75;1.75;;;;;-143.39;100.00;63593.47;4867108;29;45245;-81
2021/08/09 06:26:21;;;;;;;;;3.75;2.00;;;;;-143.39;100.00;63593.47;4867439;29;45169;-82
2021/08/09 06:28:47;;;;;;;;;4.75;2.50;;;;;-143.39;100.00;63593.47;4867296;29;45377;-81
2021/08/09 06:31:12;;;;;;;;;4.75;1.75;;;;;-143.39;100.00;63593.47;4866855;29;45267;-82
2021/08/09 06:33:37;;;;;;;;;4.00;2.00;;;;;-143.39;100.00;63593.47;4850019;29;46188;-82
2021/08/09 06:36:03;;;;;;;;;5.25;3.25;;;;;-143.39;100.00;63593.47;4867111;29;45235;-82
2021/08/09 06:38:29;;;;;;;;;1.00;1.00;;;;;-143.39;100.00;63593.47;4866769;29;45372;-82
2021/08/09 06:40:54;;;;;;;;;2.75;2.00;;;;;-143.39;100.00;63593.47;4850092;29;45671;-82
2021/08/09 06:43:19;;;;;;;;;1.50;1.50;;;;;-143.39;100.00;63593.47;4868170;29;45376;-82
2021/08/09 06:45:45;;;;;;;;;5.00;2.75;;;;;-143.39;100.00;63593.47;4850021;29;45409;-82
2021/08/09 06:48:11;;;;;;;;;4.00;1.00;;;;;-143.39;100.00;63593.47;4866915;29;45447;-82
2021/08/09 06:50:41;;;;;;;;;4.50;1.75;;;;;-143.39;100.00;63593.47;4866845;29;45540;-82
2021/08/09 06:53:07;;;;;;;;;4.75;3.50;;;;;-143.39;100.00;63593.47;4866959;29;46483;-81
2021/08/09 06:55:33;;;;;;;;;5.50;2.00;;;;;-143.39;100.00;63593.47;4864412;29;45373;-82
2021/08/09 06:57:58;;;;;;;;;3.25;2.00;;;;;-143.39;100.00;63593.47;4872919;29;45617;-82
2021/08/09 07:00:23;;;;;;;;;5.50;2.25;;;;;-143.39;100.00;63593.47;4865905;29;45456;-81
2021/08/09 07:02:49;;;;;;;;;3.25;3.00;;;;;-143.39;100.00;63593.47;4866397;29;46107;-82
2021/08/09 07:05:14;;;;;;;;;1.25;1.25;;;;;-143.39;100.00;63593.47;4867400;29;45398;-82
2021/08/09 07:07:42;;;;;;;;;3.75;3.50;;;;;-143.39;100.00;63593.47;4869383;29;45292;-82
2021/08/09 07:10:08;;;;;;;;;2.50;2.00;;;;;-143.39;100.00;63593.47;4876352;29;45413;-81
2021/08/09 07:12:33;;;;;;;;;5.50;3.00;;;;;-143.39;100.00;63593.47;4876287;29;45373;-82
2021/08/09 07:14:58;;;;;;;;;2.00;2.00;;;;;-143.39;100.00;63593.47;4866839;29;45211;-82
2021/08/09 07:17:24;;;;;;;;;3.50;3.50;;;;;-143.39;100.00;63593.47;4849523;29;45434;-82
2021/08/09 07:19:49;;;;;;;;;3.00;3.00;;;;;-143.39;100.00;63593.47;4849888;29;45246;-82
2021/08/09 07:22:14;;;;;;;;;5.50;3.25;;;;;-143.39;100.00;63593.47;4849613;29;46966;-82
2021/08/09 07:24:40;;;;;;;;;3.00;3.00;;;;;-143.39;100.00;63593.47;4866354;29;45158;-82
2021/08/09 07:27:06;;;;;;;;;1.50;1.50;;;;;-143.39;100.00;63593.47;4866342;29;45471;-82
2021/08/09 07:29:31;;;;;;;;;5.25;3.00;;;;;-143.39;100.00;63593.47;4849367;29;45269;-82
2021/08/09 07:31:57;;;;;;;;;3.50;3.00;;;;;-143.39;100.00;63593.47;4849091;29;46048;-82
2021/08/09 07:34:23;;;;;;;;;4.00;2.25;;;;;-143.39;100.00;63593.47;4866044;29;45239;-82
2021/08/09 07:36:48;;;;;;;;;3.50;3.50;;;;;-143.39;100.00;63593.47;4849336;29;45760;-82
2021/08/09 07:39:14;;;;;;;;;5.50;3.50;;;;;-143.39;100.00;63593.47;4865833;29;45419;-82
2021/08/09 07:41:39;;;;;;;;;3.75;2.25;;;;;-143.39;100.00;63593.47;4865953;29;45326;-82
2021/08/09 07:44:05;;;;;;;;;4.75;2.25;;;;;-143.39;100.00;63593.47;4866086;29;45295;-82
2021/08/09 07:46:30;;;;;;;;;4.75;2.75;;;;;-143.39;100.00;63593.47;4849275;29;45436;-82
2021/08/09 07:48:55;;;;;;;;;4.75;3.00;;;;;-143.39;100.00;63593.47;4866013;29;45238;-82
2021/08/09 07:51:21;;;;;;;;;3.00;2.75;;;;;-143.39;100.00;63593.47;4849309;29;47267;-82
2021/08/09 07:53:46;;;;;;;;;2.75;2.00;;;;;-143.39;100.00;63593.47;4866009;29;45455;-82
2021/08/09 07:56:12;;;;;;;;;2.75;2.00;;;;;-143.39;100.00;63593.47;4873460;29;45476;-82
2021/08/09 07:58:37;;;;;;;;;3.75;2.25;;;;;-143.39;100.00;63593.47;4866473;29;45443;-82
2021/08/09 08:01:03;;;;;;;;;3.00;1.50;;;;;-143.39;100.00;63593.47;4865565;29;46121;-82
2021/08/09 08:03:28;;;;;;;;;3.00;3.00;;;;;-143.39;100.00;63593.47;4865537;29;45314;-82
2021/08/09 08:05:53;;;;;;;;;4.50;1.75;;;;;-143.39;100.00;63593.47;4865821;29;45488;-82
2021/08/09 08:08:19;;;;;;;;;2.00;2.00;;;;;-143.39;100.00;63593.47;4848951;29;45275;-82
2021/08/09 08:10:44;;;;;;;;;3.25;3.00;;;;;-143.39;100.00;63593.47;4866201;29;46029;-82
2021/08/09 08:13:09;;;;;;;;;3.75;3.00;;;;;-143.39;100.00;63593.47;4871311;29;45210;-82
2021/08/09 08:15:35;;;;;;;;;2.00;2.00;;;;;-143.39;100.00;63593.47;4869149;29;45209;-82
2021/08/09 08:18:01;;;;;;;;;3.50;3.50;;;;;-143.39;100.00;63593.47;4868759;29;45174;-82
2021/08/09 08:20:27;;;;;;;;;5.00;2.75;;;;;-143.39;100.00;63593.47;4868839;29;45578;-82
2021/08/09 08:22:54;;;;;;;;;3.50;3.00;;;;;-143.39;100.00;63593.47;4868794;29;45233;-82
2021/08/09 08:25:19;;;;;;;;;4.25;3.00;;;;;-143.39;100.00;63593.47;4869055;29;45464;-82
2021/08/09 08:27:45;;;;;;;;;3.75;2.50;;;;;-143.39;100.00;63593.47;4851927;29;45366;-82
2021/08/09 08:30:12;;;;;;;;;4.00;2.50;;;;;-143.39;100.00;63593.47;4868679;29;45323;-82
2021/08/09 08:32:37;;;;;;;;;3.00;3.00;;;;;-143.39;100.00;63593.47;4851990;29;45737;-82
2021/08/09 08:35:03;;;;;;;;;3.00;3.00;;;;;-143.39;100.00;63593.47;4868795;29;45389;-82
2021/08/09 08:37:29;;;;;;;;;4.50;2.25;;;;;-143.39;100.00;63593.47;4851773;29;45462;-82
2021/08/09 08:39:55;;;;;;;;;4.00;4.00;;;;;-143.39;100.00;63593.47;4868542;29;45316;-82
2021/08/09 08:42:20;;;;;;;;;4.50;2.75;;;;;-143.39;100.00;63593.47;4868714;29;45166;-82
2021/08/09 08:44:46;;;;;;;;;3.75;2.25;;;;;-143.39;100.00;63593.47;4868759;29;45143;-82
2021/08/09 08:47:17;;;;;;;;;3.00;3.00;;;;;-143.39;100.00;63593.47;4868206;29;45393;-82
2021/08/09 08:49:47;;;;;;;;;4.50;3.00;;;;;-143.39;100.00;63593.47;4868613;29;45459;-82
2021/08/09 08:52:13;;;;;;;;;3.25;3.00;;;;;-143.39;100.00;63593.47;4868481;29;45380;-83
2021/08/09 08:54:39;;;;;;;;;5.00;2.50;;;;;-143.39;100.00;63593.47;4868474;29;45501;-83
2021/08/09 08:57:14;;;;;;;;;3.00;3.00;;;;;-143.39;100.00;63593.47;4876980;29;45423;-83
2021/08/09 08:59:40;;;;;;;;;5.50;2.75;;;;;-143.39;100.00;63593.47;4868328;29;46498;-83
2021/08/09 09:02:06;;;;;;;;;2.00;2.00;;;;;-143.39;100.00;63593.47;4851309;29;45898;-83
2021/08/09 09:04:32;;;;;;;;;4.00;3.00;;;;;-143.39;100.00;63593.47;4851603;29;45531;-83
2021/08/09 09:07:01;;;;;;;;;2.00;2.00;;;;;-143.39;100.00;63593.47;4868316;29;45389;-83
2021/08/09 09:09:31;;;;;;;;;3.75;2.75;;;;;-143.39;100.00;63593.47;4869211;29;45453;-83
2021/08/09 09:11:57;;;;;;;;;2.75;2.25;;;;;-143.39;100.00;63593.47;4851617;29;45368;-83
2021/08/09 09:14:25;;;;;;;;;2.50;2.00;;;;;-143.39;100.00;63593.47;4870669;29;45329;-83
2021/08/09 09:16:50;;;;;;;;;3.75;3.00;;;;;-143.39;100.00;63593.47;4867885;29;45511;-83
2021/08/09 09:19:28;;;;;;;;;1.25;1.25;;;;;-143.39;100.00;63593.47;4867901;29;46170;-84
2021/08/09 09:21:53;;;;;;;;;2.50;2.00;;;;;-143.39;100.00;63593.47;4851183;29;46300;-84
2021/08/09 09:24:21;;;;;;;;;5.00;2.00;;;;;-143.39;100.00;63593.47;4851503;29;45323;-84
2021/08/09 09:26:54;;;;;;;;;3.25;2.00;;;;;-143.39;100.00;63593.47;4852102;29;45488;-84
2021/08/09 09:29:19;;;;;;;;;2.00;1.00;;;;;-143.39;100.00;63593.47;4867864;29;46295;-84
2021/08/09 09:31:47;;;;;;;;;3.00;1.25;;;;;-143.39;100.00;63593.47;4870324;29;45379;-83
2021/08/09 09:34:14;;;;;;;;;4.00;1.75;;;;;-143.39;100.00;63593.47;4870231;29;45352;-83
2021/08/09 09:36:55;;;;;;;;;2.00;2.00;;;;;-143.39;100.00;63593.47;4873627;29;45460;-84
2021/08/09 09:39:36;;;;;;;;;5.75;3.00;;;;;-143.39;100.00;63593.47;4867713;29;45699;-84
2021/08/09 09:42:03;;;;;;;;;4.50;2.50;;;;;-143.39;100.00;63593.47;4851336;29;45236;-83
2021/08/09 09:44:31;;;;;;;;;2.00;2.00;;;;;-143.39;100.00;63593.47;4868567;29;45391;-83
2021/08/09 09:47:21;;;;;;;;;4.00;3.00;;;;;-143.39;100.00;63593.47;4867305;29;45466;-83
2021/08/09 09:50:21;;;;;;;;;2.00;2.00;;;;;-143.39;100.00;63593.47;4867577;29;45418;-83
2021/08/09 09:52:47;;;;;;;;;3.00;2.75;;;;;-143.39;100.00;63593.47;4858770;29;45650;-83
2021/08/09 09:55:14;;;;;;;;;5.00;2.75;;;;;-143.39;100.00;63593.47;4867531;29;45366;-83
2021/08/09 09:57:41;;;;;;;;;4.50;2.25;;;;;-143.39;100.00;63593.47;4876156;29;45559;-82
2021/08/09 10:00:12;;;;;;;;;4.50;2.75;;;;;-143.39;100.00;63593.47;4867111;29;45964;-83
2021/08/09 10:02:41;;;;;;;;;6.00;3.00;;;;;-143.39;100.00;63593.47;4867363;29;45552;-82
2021/08/09 10:05:07;;;;;;;;;3.75;3.00;;;;;-143.39;100.00;63593.47;4850782;29;45193;-82
2021/08/09 10:07:38;;;;;;;;;3.00;2.75;;;;;-143.39;100.00;63593.47;4867639;29;45213;-82
2021/08/09 10:10:05;;;;;;;;;3.50;3.50;;;;;-143.39;100.00;63593.47;4869109;29;46138;-82
2021/08/09 10:12:32;;;;;;;;;10.00;4.00;;;;;-143.39;100.00;63593.47;4870568;29;45359;-83
2021/08/09 10:14:59;;;;;;;;;3.25;3.00;;;;;-143.39;100.00;63593.47;4867459;29;45227;-82
2021/08/09 10:17:28;;;;;;;;;6.75;5.00;;;;;-143.39;100.00;63593.47;4867278;29;45376;-83
2021/08/09 10:20:05;;;;;;;;;5.00;3.25;;;;;-143.39;100.00;63593.47;4850523;29;47448;-82
2021/08/09 10:22:30;;;;;;;;;3.00;3.00;;;;;-143.39;100.00;63593.47;4850367;29;45198;-83
2021/08/09 10:24:57;;;;;;;;;0.25;0.25;;;;;-143.39;100.00;63593.47;4850591;29;45276;-83
2021/08/09 10:27:47;;;;;;;;;4.50;2.00;;;;;-143.39;100.00;63593.47;4879667;29;45238;-83
2021/08/09 10:30:14;;;;;;;;;2.00;2.00;;;;;-143.39;100.00;63593.47;4850233;29;47485;-82
2021/08/09 10:32:45;;;;;;;;;4.50;4.50;;;;;-143.39;100.00;63593.47;4866762;29;45448;-82
2021/08/09 10:35:43;;;;;;;;;4.50;2.25;;;;;-143.39;100.00;63593.47;4866244;29;45333;-83
2021/08/09 10:38:26;;;;;;;;;3.50;2.00;;;;;-143.39;100.00;63593.47;4849949;29;45718;-83
2021/08/09 10:41:00;;;;;;;;;2.00;2.00;;;;;-143.39;100.00;63593.47;4866803;29;45412;-83
2021/08/09 10:43:25;;;;;;;;;3.25;2.75;;;;;-143.39;100.00;63593.47;4869737;29;45432;-83
2021/08/09 10:45:51;;;;;;;;;2.00;2.00;;;;;-143.39;100.00;63593.47;4867502;29;45409;-83
2021/08/09 10:48:42;;;;;;;;;4.50;1.00;;;;;-143.39;100.00;63593.47;4867308;29;45664;-83
2021/08/09 10:51:08;;;;;;;;;1.00;1.00;;;;;-143.39;100.00;63593.47;4852040;29;47352;-83
2021/08/09 10:53:33;;;;;;;;;1.50;1.50;;;;;-143.39;100.00;63593.47;4867495;29;45261;-83
2021/08/09 10:55:59;;;;;;;;;5.00;3.25;;;;;-143.39;100.00;63593.47;4873966;29;45296;-83
2021/08/09 10:58:40;;;;;;;;;3.50;2.50;;;;;-143.39;100.00;63593.47;4880184;29;45530;-83
2021/08/09 11:01:06;;;;;;;;;3.00;1.25;;;;;-143.39;100.00;63593.47;4863685;29;47461;-82
2021/08/09 11:03:31;;;;;;;;;3.00;3.00;;;;;-143.39;100.00;63593.47;4875583;29;45317;-83
2021/08/09 11:05:57;;;;;;;;;6.00;1.00;;;;;-143.39;100.00;63593.47;4851193;29;45320;-83
2021/08/09 11:08:25;;;;;;;;;4.75;2.50;;;;;-143.39;100.00;63593.47;4867136;29;45523;-83
2021/08/09 11:11:07;;;;;;;;;4.75;3.00;;;;;-143.39;100.00;63593.47;4851197;29;47351;-83